createdAt,value
2019-04-11T00:02:19.147Z,6.58
2019-04-11T00:04:54.712Z,6.48
2019-04-11T00:07:24.732Z,6.58
2019-04-11T00:12:31.078Z,6.47
2019-04-11T00:17:38.349Z,6.68
2019-04-11T00:20:15.900Z,6.61
2019-04-11T00:22:45.950Z,6.57
2019-04-11T00:25:20.508Z,6.52
2019-04-11T00:27:51.022Z,6.48
2019-04-11T00:30:28.211Z,6.61
2019-04-11T00:32:58.290Z,6.51
2019-04-11T00:35:28.694Z,6.69
2019-04-11T00:37:59.333Z,6.32
2019-04-11T00:40:35.794Z,6.35
2019-04-11T00:43:05.839Z,6.34
2019-04-11T00:45:40.173Z,6.17
2019-04-11T00:48:11.247Z,6.16
2019-04-11T00:53:16.517Z,6.26
2019-04-11T00:55:51.500Z,6.49
2019-04-11T00:58:21.878Z,6.41
2019-04-11T01:00:53.760Z,6.28
2019-04-11T01:03:24.244Z,6.20
2019-04-11T01:05:56.708Z,6.18
2019-04-11T01:08:27.353Z,6.23
2019-04-11T01:10:57.721Z,6.49
2019-04-11T01:13:39.146Z,6.22
2019-04-11T01:16:17.822Z,6.26
2019-04-11T01:18:47.840Z,6.35
2019-04-11T01:21:28.471Z,6.16
2019-04-11T01:23:59.609Z,6.00
2019-04-11T01:26:32.920Z,6.21
2019-04-11T01:29:03.144Z,6.24
2019-04-11T01:31:37.875Z,6.07
2019-04-11T01:34:08.606Z,6.14
2019-04-11T01:36:40.198Z,6.16
2019-04-11T01:39:38.334Z,6.51
2019-04-11T01:44:45.862Z,6.32
2019-04-11T01:47:28.877Z,6.35
2019-04-11T01:49:58.880Z,6.23
2019-04-11T01:52:34.149Z,6.25
2019-04-11T01:55:04.234Z,6.14
2019-04-11T01:57:36.115Z,6.17
2019-04-11T02:00:08.222Z,6.08
2019-04-11T02:02:56.989Z,6.08
2019-04-11T02:05:32.832Z,5.94
2019-04-11T02:08:07.650Z,6.13
2019-04-11T02:10:37.707Z,6.06
2019-04-11T02:15:44.139Z,5.84
2019-04-11T02:18:15.095Z,6.04
2019-04-11T02:20:45.647Z,5.88
2019-04-11T02:23:49.224Z,5.98
2019-04-11T02:26:23.865Z,6.00
2019-04-11T02:28:57.251Z,5.84
2019-04-11T02:31:28.255Z,5.92
2019-04-11T02:33:59.494Z,5.81
2019-04-11T02:36:31.467Z,6.02
2019-04-11T02:39:09.841Z,6.02
2019-04-11T02:41:38.054Z,6.08
2019-04-11T02:44:27.275Z,6.25
2019-04-11T02:46:50.981Z,6.03
2019-04-11T02:49:17.026Z,5.96
2019-04-11T02:51:47.839Z,5.82
2019-04-11T02:54:21.808Z,6.18
2019-04-11T02:56:52.896Z,6.16
2019-04-11T02:59:27.431Z,6.03
2019-04-11T03:01:58.215Z,6.09
2019-04-11T03:04:34.763Z,6.08
2019-04-11T03:07:08.210Z,6.07
2019-04-11T03:09:46.819Z,5.82
2019-04-11T03:12:19.103Z,6.29
2019-04-11T03:15:12.991Z,6.11
2019-04-11T03:17:28.668Z,5.93
2019-04-11T03:20:09.487Z,6.29
2019-04-11T03:22:32.167Z,6.14
2019-04-11T03:25:05.394Z,6.11
2019-04-11T03:27:37.790Z,6.16
2019-04-11T03:36:07.821Z,6.25
2019-04-11T03:38:12.536Z,6.31
2019-04-11T03:40:48.083Z,6.29
2019-04-11T03:43:11.997Z,6.15
2019-04-11T03:46:01.492Z,5.96
2019-04-11T03:48:24.811Z,6.00
2019-04-11T03:50:44.849Z,6.16
2019-04-11T03:53:17.046Z,6.06
2019-04-11T03:55:49.413Z,5.86
2019-04-11T03:58:20.221Z,6.09
2019-04-11T04:01:00.929Z,5.97
2019-04-11T04:03:29.515Z,5.99
2019-04-11T04:06:06.896Z,6.11
2019-04-11T04:08:38.750Z,5.80
2019-04-11T04:11:16.725Z,5.72
2019-04-11T04:14:12.685Z,5.80
2019-04-11T04:17:10.532Z,5.71
2019-04-11T04:19:56.701Z,5.61
2019-04-11T04:22:52.467Z,5.59
2019-04-11T04:25:28.577Z,5.56
2019-04-11T04:27:59.464Z,5.70
2019-04-11T04:30:30.598Z,5.60
2019-04-11T04:33:00.814Z,5.63
2019-04-11T04:35:38.593Z,5.72
2019-04-11T04:38:09.379Z,5.52
2019-04-11T04:41:03.806Z,5.61
2019-04-11T04:43:18.534Z,5.50
2019-04-11T04:46:08.556Z,5.28
2019-04-11T04:48:27.021Z,5.68
2019-04-11T04:51:07.301Z,5.54
2019-04-11T04:53:33.725Z,5.41
2019-04-11T04:56:06.746Z,5.69
2019-04-11T04:58:37.870Z,5.62
2019-04-11T05:01:15.191Z,5.58
2019-04-11T05:03:46.636Z,5.54
2019-04-11T05:06:27.954Z,5.48
2019-04-11T05:09:00.052Z,5.35
2019-04-11T05:11:30.681Z,5.33
2019-04-11T05:14:00.941Z,5.59
2019-04-11T05:16:33.387Z,5.25
2019-04-11T05:19:04.480Z,5.42
2019-04-11T05:21:37.171Z,5.46
2019-04-11T05:24:07.266Z,5.42
2019-04-11T05:26:37.887Z,5.40
2019-04-11T05:29:09.039Z,5.19
2019-04-11T05:31:42.880Z,5.13
2019-04-11T05:34:13.895Z,5.41
2019-04-11T05:36:47.218Z,5.19
2019-04-11T05:39:18.485Z,4.97
2019-04-11T05:41:49.978Z,5.24
2019-04-11T05:44:21.100Z,5.28
2019-04-11T05:46:56.287Z,5.30
2019-04-11T05:49:45.135Z,5.20
2019-04-11T05:52:19.784Z,5.33
2019-04-11T05:55:02.925Z,5.05
2019-04-11T05:57:38.413Z,5.12
2019-04-11T06:00:11.757Z,4.92
2019-04-11T06:05:37.869Z,5.26
2019-04-11T06:08:21.624Z,5.18
2019-04-11T06:10:52.539Z,5.20
2019-04-11T06:13:28.814Z,5.03
2019-04-11T06:16:01.362Z,5.01
2019-04-11T06:19:04.170Z,5.08
2019-04-11T06:21:42.202Z,5.11
2019-04-11T06:24:38.637Z,5.15
2019-04-11T06:27:20.030Z,5.11
2019-04-11T06:30:15.904Z,5.16
2019-04-11T06:33:18.515Z,5.09
2019-04-11T06:36:14.116Z,5.31
2019-04-11T06:38:51.199Z,5.45
2019-04-11T06:41:30.635Z,5.21
2019-04-11T06:44:19.995Z,5.35
2019-04-11T06:47:25.028Z,5.08
2019-04-11T06:50:19.436Z,5.19
2019-04-11T06:52:50.935Z,5.09
2019-04-11T06:55:42.752Z,5.25
2019-04-11T06:58:21.484Z,5.28
2019-04-11T07:01:05.479Z,5.24
2019-04-11T07:03:47.065Z,5.44
2019-04-11T07:06:27.344Z,5.12
2019-04-11T07:09:17.206Z,5.20
2019-04-11T07:12:01.353Z,5.37
2019-04-11T07:14:49.619Z,5.50
2019-04-11T07:17:38.615Z,5.66
2019-04-11T07:20:27.414Z,5.67
2019-04-11T07:23:16.714Z,5.55
2019-04-11T07:26:05.638Z,5.64
2019-04-11T07:29:06.573Z,5.59
2019-04-11T07:32:02.584Z,5.71
2019-04-11T07:34:52.590Z,5.84
2019-04-11T07:37:33.959Z,5.85
2019-04-11T07:40:27.176Z,5.84
2019-04-11T07:43:12.845Z,5.97
2019-04-11T07:46:07.136Z,5.93
2019-04-11T07:48:42.604Z,6.11
2019-04-11T07:51:25.798Z,5.99
2019-04-11T07:53:56.966Z,6.23
2019-04-11T07:56:55.837Z,6.36
2019-04-11T07:59:46.729Z,6.28
2019-04-11T08:02:35.556Z,6.26
2019-04-11T08:05:38.948Z,6.38
2019-04-11T08:08:47.148Z,6.51
2019-04-11T08:11:29.102Z,6.55
2019-04-11T08:14:18.368Z,6.38
2019-04-11T08:17:36.500Z,6.60
2019-04-11T08:20:17.803Z,6.60
2019-04-11T08:22:51.486Z,6.63
2019-04-11T08:25:49.323Z,6.52
2019-04-11T08:28:20.538Z,6.57
2019-04-11T08:31:30.800Z,6.73
2019-04-11T08:34:06.927Z,6.77
2019-04-11T08:36:59.021Z,6.71
2019-04-11T08:39:33.883Z,6.81
2019-04-11T08:42:28.109Z,6.74
2019-04-11T08:44:58.865Z,6.83
2019-04-11T08:47:43.888Z,6.95
2019-04-11T08:50:10.543Z,6.98
2019-04-11T08:53:00.370Z,7.05
2019-04-11T08:55:49.717Z,7.13
2019-04-11T08:58:28.966Z,7.12
2019-04-11T09:01:07.528Z,7.11
2019-04-11T09:04:02.137Z,7.13
2019-04-11T09:06:47.632Z,7.22
2019-04-11T09:09:39.584Z,7.20
2019-04-11T09:12:14.180Z,7.28
2019-04-11T09:15:15.238Z,7.36
2019-04-11T09:18:04.296Z,7.21
2019-04-11T09:23:37.829Z,7.63
2019-04-11T09:26:26.043Z,7.40
2019-04-11T09:28:58.015Z,7.26
2019-04-11T09:31:49.389Z,7.03
2019-04-11T09:34:42.439Z,7.40
2019-04-11T09:37:31.796Z,7.40
2019-04-11T09:40:24.837Z,7.41
2019-04-11T09:43:14.115Z,7.15
2019-04-11T09:46:10.249Z,6.97
2019-04-11T09:49:11.935Z,7.08
2019-04-11T09:55:08.557Z,7.52
2019-04-11T09:57:48.154Z,7.72
2019-04-11T10:00:30.444Z,7.90
2019-04-11T10:03:25.612Z,8.03
2019-04-11T10:06:36.785Z,7.96
2019-04-11T10:09:11.474Z,7.68
2019-04-11T10:11:59.509Z,7.68
2019-04-11T10:14:37.590Z,7.72
2019-04-11T10:17:26.845Z,7.64
2019-04-11T10:20:00.741Z,7.71
2019-04-11T10:22:56.796Z,7.53
2019-04-11T10:25:35.190Z,7.45
2019-04-11T10:28:35.557Z,7.42
2019-04-11T10:31:10.624Z,7.57
2019-04-11T10:33:57.432Z,7.41
2019-04-11T10:36:32.980Z,7.43
2019-04-11T10:39:29.240Z,7.43
2019-04-11T10:42:06.261Z,7.50
2019-04-11T10:45:06.731Z,7.60
2019-04-11T10:47:36.835Z,7.68
2019-04-11T10:50:20.238Z,7.68
2019-04-11T10:52:53.073Z,7.88
2019-04-11T10:55:35.697Z,7.94
2019-04-11T10:58:14.954Z,7.53
2019-04-11T11:01:03.966Z,7.87
2019-04-11T11:03:57.087Z,7.99
2019-04-11T11:06:29.877Z,7.93
2019-04-11T11:09:10.149Z,7.68
2019-04-11T11:11:49.022Z,7.74
2019-04-11T11:14:39.158Z,7.91
2019-04-11T11:17:43.754Z,7.95
2019-04-11T11:20:21.521Z,7.95
2019-04-11T11:23:00.172Z,7.87
2019-04-11T11:25:53.340Z,7.87
2019-04-11T11:28:24.364Z,7.66
2019-04-11T11:31:26.057Z,7.79
2019-04-11T11:33:57.095Z,7.80
2019-04-11T11:36:45.752Z,7.99
2019-04-11T11:39:25.091Z,7.96
2019-04-11T11:42:12.908Z,7.95
2019-04-11T11:44:53.014Z,8.12
2019-04-11T11:47:41.683Z,7.98
2019-04-11T11:50:19.815Z,8.03
2019-04-11T11:53:10.275Z,8.39
2019-04-11T11:55:41.260Z,8.31
2019-04-11T11:58:29.914Z,8.30
2019-04-11T12:01:08.571Z,8.38
2019-04-11T12:04:08.593Z,8.55
2019-04-11T12:06:44.124Z,8.38
2019-04-11T12:09:29.149Z,8.31
2019-04-11T12:12:07.444Z,8.39
2019-04-11T12:15:05.796Z,8.54
2019-04-11T12:17:54.049Z,8.36
2019-04-11T12:20:31.186Z,8.54
2019-04-11T12:23:05.100Z,8.53
2019-04-11T12:25:40.842Z,8.62
2019-04-11T12:28:25.584Z,8.61
2019-04-11T12:31:03.170Z,8.73
2019-04-11T12:33:54.068Z,8.68
2019-04-11T12:36:30.676Z,8.51
2019-04-11T12:39:25.560Z,8.34
2019-04-11T12:42:04.266Z,8.43
2019-04-11T12:44:42.148Z,8.59
2019-04-11T12:47:19.339Z,8.79
2019-04-11T12:50:17.582Z,8.62
2019-04-11T12:53:18.246Z,8.96
2019-04-11T12:56:09.071Z,8.77
2019-04-11T12:59:07.344Z,8.57
2019-04-11T13:01:55.614Z,8.94
2019-04-11T13:04:30.473Z,8.59
2019-04-11T13:07:34.308Z,8.78
2019-04-11T13:10:20.558Z,8.77
2019-04-11T13:13:24.809Z,8.92
2019-04-11T13:16:12.233Z,9.16
2019-04-11T13:19:07.279Z,9.17
2019-04-11T13:21:49.986Z,8.74
2019-04-11T13:24:41.758Z,8.84
2019-04-11T13:27:28.749Z,8.80
2019-04-11T13:30:17.730Z,9.03
2019-04-11T13:32:50.853Z,8.71
2019-04-11T13:35:38.479Z,8.55
2019-04-11T13:38:18.580Z,8.34
2019-04-11T13:41:20.295Z,8.31
2019-04-11T13:43:59.255Z,8.13
2019-04-11T13:46:48.533Z,8.09
2019-04-11T13:49:54.647Z,8.15
2019-04-11T13:52:43.629Z,8.16
2019-04-11T13:55:29.551Z,8.32
2019-04-11T13:58:19.022Z,8.07
2019-04-11T14:00:59.234Z,8.17
2019-04-11T14:03:48.659Z,8.14
2019-04-11T14:06:39.397Z,8.21
2019-04-11T14:09:16.540Z,8.30
2019-04-11T14:11:48.381Z,8.36
2019-04-11T14:14:44.837Z,8.26
2019-04-11T14:17:21.926Z,8.15
2019-04-11T14:20:14.773Z,8.28
2019-04-11T14:23:14.778Z,8.12
2019-04-11T14:26:03.959Z,8.27
2019-04-11T14:28:41.325Z,8.37
2019-04-11T14:31:29.691Z,8.16
2019-04-11T14:34:09.737Z,8.04
2019-04-11T14:37:07.940Z,8.15
2019-04-11T14:39:43.903Z,8.04
2019-04-11T14:42:45.834Z,8.10
2019-04-11T14:45:39.574Z,8.04
2019-04-11T14:48:19.083Z,7.95
2019-04-11T14:51:07.416Z,8.06
2019-04-11T14:54:02.439Z,8.29
2019-04-11T14:56:34.673Z,8.33
2019-04-11T14:59:27.347Z,8.29
2019-04-11T15:02:03.073Z,7.98
2019-04-11T15:05:06.155Z,8.34
2019-04-11T15:07:41.043Z,8.40
2019-04-11T15:10:31.637Z,8.03
2019-04-11T15:13:01.684Z,8.30
2019-04-11T15:15:45.010Z,8.59
2019-04-11T15:18:16.203Z,8.66
2019-04-11T15:21:06.853Z,8.63
2019-04-11T15:23:40.489Z,8.83
2019-04-11T15:26:49.375Z,8.48
2019-04-11T15:29:39.521Z,8.54
2019-04-11T15:32:25.994Z,8.34
2019-04-11T15:35:05.998Z,8.19
2019-04-11T15:37:54.010Z,8.22
2019-04-11T15:40:38.925Z,8.26
2019-04-11T15:43:43.278Z,8.32
2019-04-11T15:46:33.320Z,8.14
2019-04-11T15:49:34.527Z,8.04
2019-04-11T15:52:13.904Z,8.03
2019-04-11T15:55:08.736Z,7.91
2019-04-11T15:57:42.890Z,8.03
2019-04-11T16:00:35.192Z,7.98
2019-04-11T16:03:24.711Z,8.04
2019-04-11T16:06:15.630Z,8.01
2019-04-11T16:08:56.183Z,7.72
2019-04-11T16:14:37.958Z,7.87
2019-04-11T16:17:37.808Z,7.63
2019-04-11T16:20:18.765Z,7.31
2019-04-11T16:23:08.602Z,7.51
2019-04-11T16:25:39.102Z,7.70
2019-04-11T16:28:47.360Z,7.59
2019-04-11T16:31:19.637Z,7.73
2019-04-11T16:34:09.923Z,8.09
2019-04-11T16:36:47.889Z,7.77
2019-04-11T16:39:50.190Z,7.90
2019-04-11T16:42:43.815Z,7.52
2019-04-11T16:45:38.984Z,7.39
2019-04-11T16:48:09.647Z,7.51
2019-04-11T16:50:39.693Z,7.58
2019-04-11T16:53:13.223Z,7.41
2019-04-11T16:55:43.751Z,7.79
2019-04-11T16:58:19.304Z,7.52
2019-04-11T17:00:52.180Z,7.64
2019-04-11T17:03:19.710Z,7.42
2019-04-11T17:05:57.557Z,7.50
2019-04-11T17:08:59.187Z,7.38
2019-04-11T17:11:29.196Z,7.37
2019-04-11T17:14:03.115Z,7.45
2019-04-11T17:16:33.141Z,7.24
2019-04-11T17:19:05.465Z,7.09
2019-04-11T17:21:43.225Z,7.04
2019-04-11T17:24:08.432Z,7.45
2019-04-11T17:26:38.448Z,7.39
2019-04-11T17:29:09.490Z,7.17
2019-04-11T17:31:39.536Z,7.11
2019-04-11T17:34:10.362Z,7.01
2019-04-11T17:36:40.350Z,7.19
2019-04-11T17:39:15.083Z,7.20
2019-04-11T17:41:45.103Z,7.22
2019-04-11T17:44:16.980Z,7.02
2019-04-11T17:46:47.017Z,7.01
2019-04-11T17:49:17.872Z,6.97
2019-04-11T17:51:55.851Z,6.85
2019-04-11T17:54:20.457Z,6.94
2019-04-11T17:56:54.500Z,6.99
2019-04-11T17:59:28.818Z,6.73
2019-04-11T18:01:59.375Z,6.73
2019-04-11T18:04:33.733Z,6.80
2019-04-11T18:07:08.116Z,6.65
2019-04-11T18:09:38.753Z,6.82
2019-04-11T18:12:08.981Z,6.70
2019-04-11T18:14:40.615Z,6.91
2019-04-11T18:17:10.633Z,6.77
2019-04-11T18:19:46.821Z,6.61
2019-04-11T18:22:17.065Z,6.80
2019-04-11T18:24:50.739Z,6.99
2019-04-11T18:27:26.169Z,6.67
2019-04-11T18:29:56.802Z,6.71
2019-04-11T18:32:26.860Z,6.82
2019-04-11T18:35:01.758Z,6.89
2019-04-11T18:37:32.086Z,6.75
2019-04-11T18:40:06.344Z,6.79
2019-04-11T18:42:35.379Z,6.64
2019-04-11T18:45:12.983Z,6.87
2019-04-11T18:47:43.005Z,6.86
2019-04-11T18:50:14.401Z,6.73
2019-04-11T18:52:44.401Z,6.63
2019-04-11T18:55:18.901Z,6.75
2019-04-11T18:57:48.889Z,6.71
2019-04-11T19:00:21.203Z,6.65
2019-04-11T19:02:51.636Z,6.55
2019-04-11T19:05:28.791Z,6.51
2019-04-11T19:07:56.834Z,6.66
2019-04-11T19:10:30.183Z,6.67
2019-04-11T19:13:00.243Z,6.54
2019-04-11T19:15:34.839Z,6.78
2019-04-11T19:18:06.501Z,6.89
2019-04-11T19:20:40.199Z,6.69
2019-04-11T19:23:10.687Z,6.62
2019-04-11T19:28:16.270Z,6.41
2019-04-11T19:30:47.875Z,6.70
2019-04-11T19:33:19.237Z,6.50
2019-04-11T19:35:50.936Z,6.36
2019-04-11T19:38:29.109Z,6.41
2019-04-11T19:41:03.077Z,6.54
2019-04-11T19:43:33.095Z,6.28
2019-04-11T19:46:07.192Z,6.81
2019-04-11T19:48:37.681Z,6.60
2019-04-11T19:51:11.090Z,6.47
2019-04-11T19:53:41.097Z,6.54
2019-04-11T19:56:29.619Z,6.51
2019-04-11T19:58:59.617Z,6.63
2019-04-11T20:01:33.748Z,6.43
2019-04-11T20:04:05.292Z,6.39
2019-04-11T20:06:36.868Z,6.25
2019-04-11T20:09:10.801Z,6.12
2019-04-11T20:11:44.880Z,6.33
2019-04-11T20:14:14.764Z,6.32
2019-04-11T20:16:48.897Z,6.41
2019-04-11T20:19:17.166Z,6.27
2019-04-11T20:21:49.267Z,6.14
2019-04-11T20:24:19.581Z,5.99
2019-04-11T20:26:51.415Z,6.30
2019-04-11T20:29:22.129Z,6.20
2019-04-11T20:31:53.103Z,6.48
2019-04-11T20:34:27.643Z,6.49
2019-04-11T20:36:55.807Z,6.15
2019-04-11T20:39:25.833Z,6.04
2019-04-11T20:41:58.312Z,6.35
2019-04-11T20:44:28.390Z,6.55
2019-04-11T20:49:35.447Z,6.39
2019-04-11T20:52:05.486Z,6.21
2019-04-11T20:54:35.987Z,6.21
2019-04-11T20:57:07.313Z,6.14
2019-04-11T20:59:41.233Z,6.00
2019-04-11T21:02:09.190Z,6.27
2019-04-11T21:04:39.298Z,6.21
2019-04-11T21:07:09.401Z,6.08
2019-04-11T21:09:39.494Z,6.11
2019-04-11T21:12:09.567Z,6.36
2019-04-11T21:14:39.594Z,6.30
2019-04-11T21:17:09.667Z,6.16
2019-04-11T21:19:39.684Z,6.17
2019-04-11T21:22:09.714Z,6.07
2019-04-11T21:24:41.714Z,6.03
2019-04-11T21:27:11.881Z,5.93
2019-04-11T21:29:41.888Z,5.92
2019-04-11T21:32:13.955Z,5.75
2019-04-11T21:34:43.662Z,5.78
2019-04-11T21:37:13.715Z,5.99
2019-04-11T21:39:43.807Z,5.76
2019-04-11T21:42:13.883Z,5.90
2019-04-11T21:44:43.966Z,5.82
2019-04-11T21:47:14.041Z,5.66
2019-04-11T21:49:44.124Z,5.69
2019-04-11T21:52:14.941Z,5.78
2019-04-11T21:54:45.880Z,5.85
2019-04-11T21:57:18.387Z,5.71
2019-04-11T21:59:51.243Z,5.89
2019-04-11T22:02:23.999Z,5.78
2019-04-11T22:04:51.510Z,5.71
2019-04-11T22:07:21.622Z,5.57
2019-04-11T22:09:51.675Z,5.98
2019-04-11T22:12:21.696Z,5.84
2019-04-11T22:14:51.798Z,5.79
2019-04-11T22:17:22.101Z,5.66
2019-04-11T22:19:52.116Z,5.65
2019-04-11T22:22:22.116Z,5.73
2019-04-11T22:24:52.120Z,5.78
2019-04-11T22:27:22.819Z,5.82
2019-04-11T22:29:55.138Z,5.73
2019-04-11T22:32:25.878Z,5.54
2019-04-11T22:34:56.840Z,5.59
2019-04-11T22:37:30.095Z,5.70
2019-04-11T22:40:02.079Z,5.50
2019-04-11T22:42:31.670Z,5.51
2019-04-11T22:45:01.696Z,5.58
2019-04-11T22:47:31.678Z,5.49
2019-04-11T22:50:01.759Z,5.63
2019-04-11T22:52:31.754Z,5.85
2019-04-11T22:55:01.757Z,5.74
2019-04-11T22:57:31.746Z,5.62
2019-04-11T23:00:01.746Z,5.65
2019-04-11T23:02:53.452Z,5.74
2019-04-11T23:05:23.474Z,5.81
2019-04-11T23:07:53.522Z,5.75
2019-04-11T23:10:23.576Z,5.67
2019-04-11T23:12:53.572Z,5.70
2019-04-11T23:15:23.612Z,5.76
2019-04-11T23:17:53.610Z,5.70
2019-04-11T23:20:23.646Z,5.80
2019-04-11T23:22:53.614Z,5.60
2019-04-11T23:25:23.652Z,5.94
2019-04-11T23:27:53.624Z,5.63
2019-04-11T23:30:23.651Z,5.70
2019-04-11T23:32:53.646Z,5.88
2019-04-11T23:35:23.658Z,5.65
2019-04-11T23:37:53.673Z,5.69
2019-04-11T23:40:23.700Z,5.80
2019-04-11T23:42:53.718Z,5.67
2019-04-11T23:45:26.350Z,5.53
2019-04-11T23:47:56.366Z,5.58
2019-04-11T23:50:26.356Z,5.56
2019-04-11T23:52:57.938Z,5.55
2019-04-11T23:55:30.745Z,5.47
2019-04-11T23:58:01.774Z,5.63
